Terminal Aerodrome Forecast
Issued by NWS Buffalo, NY

Home | Current Version | Previous Version | Text Only | Print | Product List | Glossary On
Versions: 1 2 3 4 5 6 7 8 9 10 11 12 13 14 15 16 17 18 19 20 21 22 23 24 25 26 27 28 29 30 31 32 33 34
996
FTUS41 KBUF 072321
TAFBUF
TAF
KBUF 072321Z 0800/0824 14006KT P6SM BKN090
     FM080600 16006KT P6SM BKN120
     FM080800 15006KT P6SM OVC070
     FM081400 15010KT P6SM OVC060
     FM082100 11008KT P6SM OVC050
     FM082300 10008KT P6SM VCSH OVC050=

USA.gov is the U.S. government's official web portal to all federal, state and local government web resources and services.